Hlavní strana
METAR-TAF:

METAR-TAF

Letiště :

Indianapolis, Indiana, Spojené státy americké

zeměpisná šířka: 39-49-30N, zeměpisná délka: 086-17-45W, výška: 250 m

Aktuální stav počasí

Zpráva byla vytvořena před 22 minutami, v 12:53 UTC
Západní vítr 4 kt
Teplota -1°C
Vlhkost vzduchu 93%
Tlak 1019 hPa
Viditelnost: 11.3 km
Oblačno až skoro zataženo ve výšce 800 ft
Zataženo ve výšce 2000 ft

METAR: KEYE 281253Z AUTO 27004KT 7SM BKN008 OVC020 M01/M02 A3008 RMK AO2 SLP194 T10061022

Čas: 08:15 (13:15 UTC)


TAF: chybějící

Stav a předpovědi počasí z více než 4 000 letišť (zprávy METAR a TAF).

Červené a žluté tečky na mapě představují dostupné meteorologické stanice.

Když kurzor umístíte na tečku, zobrazí se název stanice.

Pak kliknutím zobrazíte stav a předpověď počasí.

Chcete-li změnit mapu, kliknutím na zelené tlačítko se znaménkem +mapu přiblížíte, kliknutím na zelené tlačítko se znaménkem – mapu oddálíte a kliknutím na zelené šipky přejdete na sousední mapy.


METAR-TAF: